createdAt,value
2017-11-30T00:00:39.940Z,22.20
2017-11-30T00:03:07.785Z,21.10
2017-11-30T00:05:35.691Z,22.53
2017-11-30T00:08:03.541Z,24.30
2017-11-30T00:10:31.396Z,26.70
2017-11-30T00:12:59.274Z,27.37
2017-11-30T00:15:27.147Z,24.77
2017-11-30T00:17:55.037Z,24.73
2017-11-30T00:20:22.920Z,23.90
2017-11-30T00:22:50.780Z,26.03
2017-11-30T00:25:18.673Z,26.73
2017-11-30T00:27:46.587Z,23.07
2017-11-30T00:30:14.456Z,22.83
2017-11-30T00:32:42.347Z,23.07
2017-11-30T00:35:10.227Z,24.67
2017-11-30T00:37:38.089Z,23.70
2017-11-30T00:40:05.935Z,23.00
2017-11-30T00:42:40.045Z,22.97
2017-11-30T00:45:07.892Z,22.00
2017-11-30T00:47:35.767Z,21.07
2017-11-30T00:50:03.629Z,22.47
2017-11-30T00:52:31.491Z,22.20
2017-11-30T00:54:59.356Z,22.73
2017-11-30T00:57:27.227Z,20.97
2017-11-30T00:59:55.091Z,22.27
2017-11-30T01:02:22.984Z,21.60
2017-11-30T01:04:50.878Z,22.47
2017-11-30T01:07:18.740Z,22.07
2017-11-30T01:09:46.597Z,23.10
2017-11-30T01:12:14.470Z,22.00
2017-11-30T01:14:42.308Z,22.80
2017-11-30T01:17:10.178Z,21.17
2017-11-30T01:19:38.104Z,21.43
2017-11-30T01:22:05.955Z,23.30
2017-11-30T01:24:33.786Z,24.10
2017-11-30T01:27:01.637Z,23.27
2017-11-30T01:29:29.496Z,22.43
2017-11-30T01:31:57.400Z,22.90
2017-11-30T01:34:25.281Z,24.00
2017-11-30T01:36:53.124Z,23.17
2017-11-30T01:39:20.967Z,23.47
2017-11-30T01:41:48.864Z,24.50
2017-11-30T01:44:16.726Z,23.50
2017-11-30T01:46:44.570Z,23.33
2017-11-30T01:49:12.434Z,24.23
2017-11-30T01:51:40.298Z,22.13
2017-11-30T01:54:08.134Z,24.33
2017-11-30T01:56:36.015Z,23.63
2017-11-30T01:59:03.865Z,22.30
2017-11-30T02:01:31.694Z,24.40
2017-11-30T02:03:59.574Z,24.77
2017-11-30T02:06:27.433Z,23.83
2017-11-30T02:08:55.287Z,24.73
2017-11-30T02:11:23.154Z,24.77
2017-11-30T02:13:51.015Z,24.40
2017-11-30T02:16:18.867Z,23.77
2017-11-30T02:18:46.748Z,23.77
2017-11-30T02:21:14.657Z,23.70
2017-11-30T02:23:42.490Z,25.00
2017-11-30T02:26:10.377Z,26.90
2017-11-30T02:28:38.210Z,27.17
2017-11-30T02:31:06.072Z,27.50
2017-11-30T02:33:33.942Z,25.07
2017-11-30T02:36:01.790Z,26.90
2017-11-30T02:38:29.622Z,25.17
2017-11-30T02:40:57.537Z,24.57
2017-11-30T02:43:25.735Z,25.67
2017-11-30T02:45:53.580Z,23.10
2017-11-30T02:48:21.469Z,26.27
2017-11-30T02:50:49.325Z,23.20
2017-11-30T02:53:17.172Z,24.60
2017-11-30T02:55:45.059Z,24.60
2017-11-30T02:58:12.918Z,23.87
2017-11-30T03:00:40.817Z,23.90
2017-11-30T03:03:08.754Z,25.10
2017-11-30T03:05:36.589Z,25.47
2017-11-30T03:08:04.443Z,26.47
2017-11-30T03:10:32.325Z,25.13
2017-11-30T03:13:00.203Z,24.47
2017-11-30T03:15:28.050Z,27.13
2017-11-30T03:17:55.930Z,26.90
2017-11-30T03:20:23.803Z,23.90
2017-11-30T03:22:51.684Z,23.20
2017-11-30T03:25:19.541Z,23.23
2017-11-30T03:27:47.393Z,23.30
2017-11-30T03:30:15.286Z,23.93
2017-11-30T03:32:43.187Z,25.50
2017-11-30T03:35:11.138Z,22.50
2017-11-30T03:37:38.990Z,23.10
2017-11-30T03:40:06.860Z,26.67
2017-11-30T03:42:35.553Z,24.27
2017-11-30T03:45:03.425Z,25.73
2017-11-30T03:47:31.311Z,26.87
2017-11-30T03:49:59.153Z,27.03
2017-11-30T03:52:27.014Z,25.93
2017-11-30T03:54:54.886Z,26.37
2017-11-30T03:57:22.726Z,24.80
2017-11-30T03:59:50.583Z,26.10
2017-11-30T04:02:18.454Z,26.87
2017-11-30T04:04:46.322Z,25.90
2017-11-30T04:07:14.168Z,25.90
2017-11-30T04:09:42.070Z,26.70
2017-11-30T04:12:09.958Z,26.47
2017-11-30T04:14:37.816Z,25.30
2017-11-30T04:17:05.702Z,26.20
2017-11-30T04:19:33.545Z,25.00
2017-11-30T04:22:01.394Z,27.67
2017-11-30T04:24:29.294Z,24.40
2017-11-30T04:26:57.129Z,25.80
2017-11-30T04:29:25.019Z,26.30
2017-11-30T04:31:53.955Z,26.13
2017-11-30T04:34:21.824Z,25.43
2017-11-30T04:36:49.708Z,25.80
2017-11-30T04:39:17.557Z,26.80
2017-11-30T04:41:45.417Z,25.43
2017-11-30T04:44:13.250Z,26.07
2017-11-30T04:46:41.170Z,25.87
2017-11-30T04:49:09.037Z,26.77
2017-11-30T04:51:36.989Z,26.70
2017-11-30T04:54:04.867Z,25.37
2017-11-30T04:56:32.732Z,26.73
2017-11-30T04:59:00.580Z,26.57
2017-11-30T05:01:28.464Z,26.13
2017-11-30T05:03:56.312Z,27.17
2017-11-30T05:06:24.158Z,27.07
2017-11-30T05:08:52.033Z,27.00
2017-11-30T05:11:19.901Z,26.20
2017-11-30T05:13:47.766Z,25.20
2017-11-30T05:16:15.673Z,26.90
2017-11-30T05:18:43.532Z,26.80
2017-11-30T05:21:12.201Z,25.07
2017-11-30T05:23:40.073Z,26.33
2017-11-30T05:26:07.949Z,23.90
2017-11-30T05:28:35.805Z,25.17
2017-11-30T05:31:03.691Z,24.60
2017-11-30T05:33:31.581Z,26.20
2017-11-30T05:35:59.469Z,25.40
2017-11-30T05:38:34.380Z,25.87
2017-11-30T05:41:02.288Z,24.77
2017-11-30T05:43:30.132Z,24.90
2017-11-30T05:45:57.986Z,27.07
2017-11-30T05:48:25.848Z,25.93
2017-11-30T05:50:53.743Z,23.73
2017-11-30T05:53:21.619Z,23.33
2017-11-30T05:55:49.528Z,24.97
2017-11-30T05:58:17.381Z,24.50
2017-11-30T06:00:45.245Z,24.40
2017-11-30T06:03:13.085Z,25.97
2017-11-30T06:05:40.931Z,25.30
2017-11-30T06:08:08.809Z,24.00
2017-11-30T06:10:36.661Z,23.43
2017-11-30T06:13:04.515Z,24.30
2017-11-30T06:15:32.399Z,25.57
2017-11-30T06:18:00.228Z,25.90
2017-11-30T06:20:28.093Z,23.83
2017-11-30T06:22:55.976Z,24.03
2017-11-30T06:25:23.831Z,23.90
2017-11-30T06:27:51.756Z,24.67
2017-11-30T06:30:19.631Z,26.70
2017-11-30T06:32:47.472Z,26.97
2017-11-30T06:35:15.297Z,24.53
2017-11-30T06:37:43.164Z,24.67
2017-11-30T06:40:11.012Z,26.53
2017-11-30T06:42:38.882Z,24.77
2017-11-30T06:45:06.999Z,25.60
2017-11-30T06:47:34.861Z,24.73
2017-11-30T06:50:02.712Z,25.80
2017-11-30T06:52:30.577Z,25.70
2017-11-30T06:54:58.433Z,26.70
2017-11-30T06:57:26.331Z,25.00
2017-11-30T06:59:54.209Z,25.13
2017-11-30T07:02:22.030Z,26.73
2017-11-30T07:04:49.882Z,23.83
2017-11-30T07:07:17.796Z,25.50
2017-11-30T07:09:45.644Z,25.13
2017-11-30T07:12:13.480Z,25.23
2017-11-30T07:14:41.399Z,26.40
2017-11-30T07:17:09.244Z,24.70
2017-11-30T07:19:37.123Z,24.07
2017-11-30T07:22:05.015Z,24.37
2017-11-30T07:24:32.868Z,24.30
2017-11-30T07:27:00.697Z,24.10
2017-11-30T07:29:28.624Z,24.30
2017-11-30T07:31:56.449Z,22.97
2017-11-30T07:34:24.313Z,22.93
2017-11-30T07:36:52.248Z,22.83
2017-11-30T07:39:20.128Z,23.37
2017-11-30T07:41:47.969Z,25.80
2017-11-30T07:44:15.851Z,23.63
2017-11-30T07:46:43.685Z,24.43
2017-11-30T07:49:11.522Z,22.80
2017-11-30T07:51:39.401Z,23.40
2017-11-30T07:54:07.248Z,25.00
2017-11-30T07:56:35.091Z,23.50
2017-11-30T07:59:02.946Z,21.77
2017-11-30T08:01:30.784Z,22.63
2017-11-30T08:03:58.646Z,22.60
2017-11-30T08:06:26.554Z,22.47
2017-11-30T08:08:54.396Z,24.40
2017-11-30T08:11:22.234Z,22.20
2017-11-30T08:13:50.129Z,22.43
2017-11-30T08:16:17.985Z,23.10
2017-11-30T08:18:45.833Z,22.00
2017-11-30T08:21:13.700Z,22.30
2017-11-30T08:23:41.564Z,23.33
2017-11-30T08:26:09.400Z,23.63
2017-11-30T08:28:37.962Z,25.23
2017-11-30T08:31:05.871Z,25.47
2017-11-30T08:33:33.717Z,24.50
2017-11-30T08:36:01.609Z,25.17
2017-11-30T08:38:29.481Z,24.90
2017-11-30T08:40:57.328Z,26.30
2017-11-30T08:43:25.183Z,25.10
2017-11-30T08:45:53.014Z,23.90
2017-11-30T08:48:20.864Z,24.73
2017-11-30T08:50:48.738Z,26.50
2017-11-30T08:53:16.602Z,25.67
2017-11-30T08:55:44.465Z,24.50
2017-11-30T08:58:12.370Z,25.53
2017-11-30T09:00:40.268Z,24.70
2017-11-30T09:03:15.217Z,26.77
2017-11-30T09:05:43.058Z,26.37
2017-11-30T09:08:10.897Z,27.60
2017-11-30T09:10:38.769Z,28.10
2017-11-30T09:13:06.624Z,29.43
2017-11-30T09:15:34.501Z,28.00
2017-11-30T09:18:02.393Z,26.87
2017-11-30T09:20:30.242Z,26.43
2017-11-30T09:22:58.098Z,28.87
2017-11-30T09:25:25.960Z,26.10
2017-11-30T09:27:53.816Z,25.60
2017-11-30T09:30:21.658Z,23.10
2017-11-30T09:32:49.659Z,24.83
2017-11-30T09:35:17.501Z,23.90
2017-11-30T09:37:45.765Z,24.07
2017-11-30T09:40:13.905Z,24.70
2017-11-30T09:42:41.803Z,23.50
2017-11-30T09:45:09.766Z,24.87
2017-11-30T09:47:37.656Z,23.50
2017-11-30T09:50:06.046Z,23.10
2017-11-30T09:52:33.994Z,25.23
2017-11-30T09:55:01.874Z,24.10
2017-11-30T09:57:29.730Z,24.07
2017-11-30T09:59:57.580Z,21.97
2017-11-30T10:02:25.459Z,22.50
2017-11-30T10:04:53.331Z,22.80
2017-11-30T10:07:21.161Z,24.53
2017-11-30T10:09:49.039Z,22.53
2017-11-30T10:12:16.943Z,24.87
2017-11-30T10:14:44.765Z,24.50
2017-11-30T10:17:12.645Z,23.90
2017-11-30T10:19:40.492Z,21.53
2017-11-30T10:22:08.330Z,23.03
2017-11-30T10:24:36.221Z,23.30
2017-11-30T10:27:04.060Z,24.40
2017-11-30T10:29:31.896Z,21.50
2017-11-30T10:31:59.776Z,23.67
2017-11-30T10:34:27.672Z,23.97
2017-11-30T10:36:55.504Z,23.43
2017-11-30T10:39:23.405Z,23.03
2017-11-30T10:41:51.256Z,28.30
2017-11-30T10:44:19.086Z,26.70
2017-11-30T10:46:46.967Z,24.80
2017-11-30T10:49:14.958Z,26.73
2017-11-30T10:51:42.806Z,25.73
2017-11-30T10:54:10.704Z,25.03
2017-11-30T10:56:38.563Z,24.10
2017-11-30T10:59:06.609Z,26.40
2017-11-30T11:01:34.488Z,25.83
2017-11-30T11:04:02.340Z,24.90
2017-11-30T11:06:30.191Z,24.13
2017-11-30T11:08:58.056Z,24.83
2017-11-30T11:11:25.901Z,24.13
2017-11-30T11:13:53.753Z,23.27
2017-11-30T11:16:21.636Z,23.10
2017-11-30T11:18:49.489Z,23.47
2017-11-30T11:21:17.355Z,22.60
2017-11-30T11:23:45.272Z,21.60
2017-11-30T11:26:13.181Z,20.17
2017-11-30T11:28:41.029Z,22.70
2017-11-30T11:31:08.919Z,22.30
2017-11-30T11:33:36.769Z,22.00
2017-11-30T11:36:04.717Z,20.53
2017-11-30T11:38:32.646Z,22.33
2017-11-30T11:41:00.497Z,21.70
2017-11-30T11:43:28.353Z,20.93
2017-11-30T11:45:56.244Z,18.37
2017-11-30T11:48:24.109Z,18.90
2017-11-30T11:50:51.957Z,18.57
2017-11-30T11:53:19.868Z,19.87
2017-11-30T11:55:47.720Z,22.20
2017-11-30T11:58:15.627Z,22.00
2017-11-30T12:00:43.567Z,22.40
2017-11-30T12:03:11.552Z,21.73
2017-11-30T12:05:39.569Z,22.10
2017-11-30T12:08:07.432Z,21.70
2017-11-30T12:10:35.272Z,24.90
2017-11-30T12:13:03.157Z,19.53
2017-11-30T12:15:31.088Z,21.57
2017-11-30T12:17:58.929Z,20.60
2017-11-30T12:20:26.808Z,22.07
2017-11-30T12:22:54.687Z,22.50
2017-11-30T12:25:22.533Z,21.70
2017-11-30T12:27:50.419Z,21.07
2017-11-30T12:30:18.277Z,20.00
2017-11-30T12:32:46.131Z,21.70
2017-11-30T12:35:14.055Z,19.67
2017-11-30T12:37:41.969Z,19.43
2017-11-30T12:40:09.821Z,19.80
2017-11-30T12:42:37.674Z,21.10
2017-11-30T12:45:05.542Z,20.20
2017-11-30T12:47:33.385Z,20.57
2017-11-30T12:50:01.233Z,20.23
2017-11-30T12:52:29.107Z,16.40
2017-11-30T12:54:56.958Z,16.73
2017-11-30T12:57:24.824Z,21.13
2017-11-30T12:59:53.384Z,21.00
2017-11-30T13:02:21.231Z,20.50
2017-11-30T13:04:49.074Z,21.70
2017-11-30T13:07:16.950Z,22.07
2017-11-30T13:09:44.827Z,22.53
2017-11-30T13:12:12.692Z,20.67
2017-11-30T13:14:40.602Z,20.00
2017-11-30T13:17:08.503Z,21.37
2017-11-30T13:19:36.357Z,19.80
2017-11-30T13:22:04.247Z,19.27
2017-11-30T13:24:32.104Z,22.10
2017-11-30T13:26:59.959Z,22.27
2017-11-30T13:29:27.819Z,21.30
2017-11-30T13:31:55.651Z,20.33
2017-11-30T13:34:23.507Z,22.87
2017-11-30T13:36:51.451Z,24.00
2017-11-30T13:39:19.311Z,25.77
2017-11-30T13:41:47.163Z,24.87
2017-11-30T13:44:15.030Z,25.40
2017-11-30T13:46:42.892Z,27.03
2017-11-30T13:49:25.769Z,27.97
2017-11-30T13:51:53.619Z,26.40
2017-11-30T13:54:21.507Z,25.70
2017-11-30T13:56:49.391Z,27.00
2017-11-30T13:59:17.284Z,30.37
2017-11-30T14:01:45.106Z,27.70
2017-11-30T14:04:12.995Z,27.10
2017-11-30T14:06:40.866Z,28.17
2017-11-30T14:09:08.799Z,28.23
2017-11-30T14:11:36.694Z,26.63
2017-11-30T14:14:04.539Z,26.53
2017-11-30T14:16:32.388Z,27.40
2017-11-30T14:19:00.276Z,25.00
2017-11-30T14:21:28.095Z,25.20
2017-11-30T14:23:55.916Z,27.00
2017-11-30T14:26:23.788Z,26.20
2017-11-30T14:28:51.632Z,28.00
2017-11-30T14:31:19.466Z,26.23
2017-11-30T14:33:47.349Z,29.50
2017-11-30T14:36:15.224Z,26.57
2017-11-30T14:38:43.143Z,28.67
2017-11-30T14:41:11.071Z,28.70
2017-11-30T14:43:38.936Z,28.13
2017-11-30T14:46:06.767Z,28.73
2017-11-30T14:48:34.635Z,29.63
2017-11-30T14:51:02.470Z,28.50
2017-11-30T14:53:30.335Z,29.10
2017-11-30T14:55:58.216Z,29.00
2017-11-30T14:58:26.055Z,30.80
2017-11-30T15:00:53.901Z,29.87
2017-11-30T15:03:21.764Z,32.07
2017-11-30T15:05:49.600Z,31.13
2017-11-30T15:08:17.938Z,31.97
2017-11-30T15:10:45.891Z,34.10
2017-11-30T15:13:13.763Z,31.40
2017-11-30T15:15:41.644Z,32.20
2017-11-30T15:18:09.523Z,33.20
2017-11-30T15:20:37.381Z,30.83
2017-11-30T15:23:05.232Z,30.33
2017-11-30T15:25:33.124Z,32.97
2017-11-30T15:28:00.957Z,31.13
2017-11-30T15:30:28.870Z,31.10
2017-11-30T15:32:56.749Z,33.77
2017-11-30T15:35:24.605Z,33.23
2017-11-30T15:37:52.452Z,29.90
2017-11-30T15:40:20.336Z,32.73
2017-11-30T15:42:48.203Z,29.90
2017-11-30T15:45:16.064Z,26.07
2017-11-30T15:47:43.943Z,27.40
2017-11-30T15:50:11.804Z,29.00
2017-11-30T15:52:39.669Z,29.83
2017-11-30T15:55:07.548Z,26.10
2017-11-30T15:57:35.424Z,27.53
2017-11-30T16:00:03.261Z,26.60
2017-11-30T16:02:31.160Z,27.00
2017-11-30T16:04:59.027Z,26.90
2017-11-30T16:07:27.063Z,29.50
2017-11-30T16:09:54.955Z,26.03
2017-11-30T16:12:22.804Z,25.50
2017-11-30T16:14:50.671Z,27.87
2017-11-30T16:17:18.536Z,29.93
2017-11-30T16:19:46.377Z,24.50
2017-11-30T16:22:14.265Z,28.80
2017-11-30T16:24:42.155Z,26.60
2017-11-30T16:27:10.016Z,26.50
2017-11-30T16:29:37.880Z,28.70
2017-11-30T16:32:05.743Z,27.20
2017-11-30T16:34:33.592Z,29.30
2017-11-30T16:37:01.492Z,25.30
2017-11-30T16:39:29.368Z,25.27
2017-11-30T16:41:57.211Z,26.27
2017-11-30T16:44:25.124Z,25.63
2017-11-30T16:46:53.015Z,24.87
2017-11-30T16:49:20.877Z,26.80
2017-11-30T16:51:48.741Z,25.33
2017-11-30T16:54:16.635Z,24.27
2017-11-30T16:56:44.492Z,25.23
2017-11-30T16:59:12.333Z,27.30
2017-11-30T17:01:40.218Z,26.43
2017-11-30T17:04:08.063Z,28.60
2017-11-30T17:06:35.946Z,27.70
2017-11-30T17:09:03.824Z,26.83
2017-11-30T17:11:31.715Z,27.33
2017-11-30T17:13:59.550Z,27.20
2017-11-30T17:16:27.428Z,26.93
2017-11-30T17:18:55.280Z,28.07
2017-11-30T17:21:23.124Z,28.10
2017-11-30T17:23:51.046Z,27.40
2017-11-30T17:26:18.891Z,27.70
2017-11-30T17:28:46.751Z,27.43
2017-11-30T17:31:14.627Z,26.37
2017-11-30T17:33:42.480Z,26.90
2017-11-30T17:36:10.331Z,25.80
2017-11-30T17:38:38.208Z,29.20
2017-11-30T17:41:06.051Z,26.27
2017-11-30T17:43:33.892Z,28.27
2017-11-30T17:46:01.821Z,26.43
2017-11-30T17:48:29.718Z,30.17
2017-11-30T17:50:57.577Z,26.90
2017-11-30T17:53:25.459Z,28.63
2017-11-30T17:55:53.302Z,27.70
2017-11-30T17:58:21.168Z,28.60
2017-11-30T18:00:49.092Z,27.53
2017-11-30T18:03:16.955Z,28.53
2017-11-30T18:05:44.808Z,28.97
2017-11-30T18:08:12.679Z,28.60
2017-11-30T18:10:40.635Z,30.43
2017-11-30T18:13:08.564Z,28.20
2017-11-30T18:15:36.476Z,35.58
2017-11-30T18:18:04.307Z,37.43
2017-11-30T18:20:32.179Z,31.50
2017-11-30T18:23:00.097Z,31.20
2017-11-30T18:25:27.969Z,32.10
2017-11-30T18:27:55.817Z,29.87
2017-11-30T18:30:23.735Z,30.07
2017-11-30T18:32:51.584Z,32.37
2017-11-30T18:35:19.419Z,28.67
2017-11-30T18:37:47.329Z,30.80
2017-11-30T18:40:15.199Z,30.33
2017-11-30T18:42:49.936Z,33.70
2017-11-30T18:45:17.779Z,27.90
2017-11-30T18:47:45.696Z,34.23
2017-11-30T18:50:13.578Z,30.73
2017-11-30T18:52:41.420Z,34.57
2017-11-30T18:55:09.280Z,31.23
2017-11-30T18:57:37.154Z,30.80
2017-11-30T19:00:05.036Z,30.57
2017-11-30T19:02:32.884Z,29.60
2017-11-30T19:05:00.743Z,28.37
2017-11-30T19:07:28.666Z,27.40
2017-11-30T19:09:56.482Z,28.13
2017-11-30T19:12:24.356Z,25.70
2017-11-30T19:14:52.253Z,25.63
2017-11-30T19:17:20.099Z,29.20
2017-11-30T19:19:48.000Z,31.10
2017-11-30T19:22:15.860Z,30.80
2017-11-30T19:24:43.707Z,27.60
2017-11-30T19:27:11.592Z,31.17
2017-11-30T19:29:39.443Z,28.37
2017-11-30T19:32:07.289Z,26.90
2017-11-30T19:34:35.161Z,27.27
2017-11-30T19:37:02.983Z,28.17
2017-11-30T19:39:30.827Z,29.37
2017-11-30T19:41:58.693Z,28.67
2017-11-30T19:44:26.569Z,30.67
2017-11-30T19:46:54.419Z,29.10
2017-11-30T19:49:22.364Z,28.03
2017-11-30T19:51:50.211Z,29.77
2017-11-30T19:54:18.051Z,30.60
2017-11-30T19:56:45.939Z,27.30
2017-11-30T19:59:13.791Z,23.70
2017-11-30T20:01:41.629Z,26.87
2017-11-30T20:04:09.529Z,27.83
2017-11-30T20:06:38.321Z,26.37
2017-11-30T20:09:06.145Z,34.47
2017-11-30T20:11:34.017Z,28.53
2017-11-30T20:14:01.864Z,27.30
2017-11-30T20:16:29.707Z,27.77
2017-11-30T20:18:57.580Z,27.90
2017-11-30T20:21:25.545Z,27.87
2017-11-30T20:23:53.424Z,27.67
2017-11-30T20:26:21.279Z,25.60
2017-11-30T20:28:49.147Z,27.60
2017-11-30T20:31:16.981Z,30.30
2017-11-30T20:33:44.860Z,29.87
2017-11-30T20:36:12.715Z,26.97
2017-11-30T20:38:40.554Z,26.57
2017-11-30T20:41:08.486Z,27.37
2017-11-30T20:43:36.339Z,33.10
2017-11-30T20:46:04.222Z,29.33
2017-11-30T20:48:32.095Z,25.80
2017-11-30T20:50:59.984Z,29.07
2017-11-30T20:53:27.806Z,27.10
2017-11-30T20:55:55.679Z,28.10
2017-11-30T20:58:23.516Z,27.40
2017-11-30T21:00:51.352Z,26.17
2017-11-30T21:03:19.251Z,25.83
2017-11-30T21:05:47.111Z,27.23
2017-11-30T21:08:14.995Z,27.47
2017-11-30T21:10:42.903Z,27.80
2017-11-30T21:13:10.727Z,27.70
2017-11-30T21:15:38.560Z,29.13
2017-11-30T21:18:06.883Z,29.73
2017-11-30T21:20:34.743Z,30.87
2017-11-30T21:23:02.654Z,27.77
2017-11-30T21:25:30.503Z,26.30
2017-11-30T21:27:58.326Z,30.30
2017-11-30T21:30:26.180Z,28.53
2017-11-30T21:32:54.047Z,28.00
2017-11-30T21:35:21.936Z,28.33
2017-11-30T21:37:49.772Z,28.20
2017-11-30T21:40:17.701Z,28.10
2017-11-30T21:42:45.572Z,27.60
2017-11-30T21:45:13.411Z,28.83
2017-11-30T21:47:41.264Z,29.40
2017-11-30T21:50:09.101Z,29.40
2017-11-30T21:52:36.980Z,26.30
2017-11-30T21:55:04.835Z,28.20
2017-11-30T21:57:32.660Z,25.73
2017-11-30T22:00:00.489Z,28.07
2017-11-30T22:02:28.355Z,23.83
2017-11-30T22:04:56.199Z,28.10
2017-11-30T22:07:24.064Z,24.70
2017-11-30T22:09:51.932Z,23.97
2017-11-30T22:12:19.811Z,24.43
2017-11-30T22:14:47.648Z,25.17
2017-11-30T22:17:15.517Z,22.03
2017-11-30T22:19:43.391Z,21.30
2017-11-30T22:22:11.238Z,18.70
2017-11-30T22:24:39.171Z,20.80
2017-11-30T22:27:07.036Z,26.70
2017-11-30T22:29:34.867Z,20.30
2017-11-30T22:32:02.859Z,21.93
2017-11-30T22:34:30.740Z,22.57
2017-11-30T22:36:58.576Z,22.07
2017-11-30T22:39:26.449Z,21.87
2017-11-30T22:41:54.313Z,17.30
2017-11-30T22:44:22.146Z,20.13
2017-11-30T22:46:50.049Z,21.03
2017-11-30T22:49:18.038Z,20.87
2017-11-30T22:51:45.890Z,22.13
2017-11-30T22:54:13.842Z,21.63
2017-11-30T22:56:41.751Z,21.17
2017-11-30T22:59:09.611Z,20.67
2017-11-30T23:01:37.472Z,19.57
2017-11-30T23:04:05.349Z,21.70
2017-11-30T23:06:33.183Z,20.20
2017-11-30T23:09:01.096Z,21.30
2017-11-30T23:11:28.927Z,20.37
2017-11-30T23:13:56.765Z,19.90
2017-11-30T23:16:24.662Z,20.47
2017-11-30T23:18:52.516Z,22.33
2017-11-30T23:21:20.339Z,19.03
2017-11-30T23:23:48.220Z,21.73
2017-11-30T23:26:16.075Z,20.33
2017-11-30T23:28:43.938Z,20.67
2017-11-30T23:31:11.795Z,21.90
2017-11-30T23:33:39.678Z,20.33
2017-11-30T23:36:07.523Z,23.03
2017-11-30T23:38:35.384Z,21.03
2017-11-30T23:41:03.239Z,21.87
2017-11-30T23:43:31.072Z,22.27
2017-11-30T23:45:58.938Z,22.90
2017-11-30T23:48:26.768Z,22.17
2017-11-30T23:50:54.592Z,22.10
2017-11-30T23:53:22.447Z,23.23
2017-11-30T23:55:50.351Z,20.03
2017-11-30T23:58:18.340Z,20.13
